createdAt,value
2018-06-24T00:02:20.909Z,6.30
2018-06-24T00:04:47.845Z,6.77
2018-06-24T00:07:14.777Z,6.50
2018-06-24T00:09:41.729Z,6.70
2018-06-24T00:12:08.754Z,7.03
2018-06-24T00:14:35.689Z,6.50
2018-06-24T00:17:02.661Z,6.50
2018-06-24T00:19:29.627Z,6.17
2018-06-24T00:21:56.565Z,6.73
2018-06-24T00:24:23.496Z,6.60
2018-06-24T00:26:50.448Z,5.03
2018-06-24T00:29:17.390Z,6.37
2018-06-24T00:31:44.321Z,5.97
2018-06-24T00:34:11.252Z,6.50
2018-06-24T00:36:38.186Z,5.97
2018-06-24T00:39:06.370Z,5.90
2018-06-24T00:41:33.305Z,6.20
2018-06-24T00:44:00.261Z,6.43
2018-06-24T00:46:27.204Z,5.70
2018-06-24T00:48:54.117Z,5.70
2018-06-24T00:51:21.055Z,5.20
2018-06-24T00:53:47.990Z,5.67
2018-06-24T00:56:14.937Z,5.83
2018-06-24T00:58:41.896Z,5.30
2018-06-24T01:01:08.840Z,6.07
2018-06-24T01:03:35.794Z,6.30
2018-06-24T01:06:02.768Z,6.37
2018-06-24T01:08:29.705Z,6.30
2018-06-24T01:10:56.641Z,6.77
2018-06-24T01:13:23.589Z,6.90
2018-06-24T01:15:50.504Z,7.40
2018-06-24T01:18:17.443Z,6.53
2018-06-24T01:20:44.395Z,7.83
2018-06-24T01:23:11.337Z,7.57
2018-06-24T01:25:38.264Z,7.40
2018-06-24T01:28:05.218Z,8.00
2018-06-24T01:30:32.157Z,8.40
2018-06-24T01:32:59.088Z,8.47
2018-06-24T01:35:26.010Z,7.03
2018-06-24T01:37:52.960Z,8.40
2018-06-24T01:40:19.885Z,8.07
2018-06-24T01:42:46.820Z,8.60
2018-06-24T01:45:13.737Z,7.67
2018-06-24T01:47:40.665Z,8.13
2018-06-24T01:50:07.579Z,7.07
2018-06-24T01:52:34.523Z,6.93
2018-06-24T01:55:01.453Z,5.67
2018-06-24T01:57:28.389Z,5.10
2018-06-24T01:59:55.309Z,5.53
2018-06-24T02:02:22.249Z,5.50
2018-06-24T02:04:49.174Z,5.40
2018-06-24T02:07:16.126Z,6.03
2018-06-24T02:09:43.045Z,6.07
2018-06-24T02:12:09.998Z,6.03
2018-06-24T02:14:36.929Z,5.10
2018-06-24T02:17:03.886Z,5.80
2018-06-24T02:19:30.827Z,5.83
2018-06-24T02:21:57.764Z,5.30
2018-06-24T02:24:24.681Z,5.03
2018-06-24T02:26:51.601Z,5.70
2018-06-24T02:29:18.539Z,5.80
2018-06-24T02:31:45.453Z,5.57
2018-06-24T02:34:12.393Z,5.47
2018-06-24T02:36:39.329Z,6.57
2018-06-24T02:39:07.645Z,5.37
2018-06-24T02:41:34.585Z,6.07
2018-06-24T02:44:01.529Z,5.57
2018-06-24T02:46:28.455Z,5.73
2018-06-24T02:48:55.421Z,5.93
2018-06-24T02:51:22.349Z,6.30
2018-06-24T02:53:49.289Z,5.93
2018-06-24T02:56:16.241Z,5.60
2018-06-24T02:58:43.189Z,6.07
2018-06-24T03:01:10.110Z,5.20
2018-06-24T03:03:37.045Z,6.37
2018-06-24T03:06:03.995Z,6.03
2018-06-24T03:08:30.933Z,6.10
2018-06-24T03:10:57.873Z,6.73
2018-06-24T03:13:24.798Z,7.03
2018-06-24T03:15:51.728Z,6.57
2018-06-24T03:18:18.661Z,6.40
2018-06-24T03:20:45.583Z,6.27
2018-06-24T03:23:12.528Z,6.33
2018-06-24T03:25:39.516Z,5.97
2018-06-24T03:28:06.461Z,7.00
2018-06-24T03:30:33.505Z,6.60
2018-06-24T03:33:00.789Z,6.33
2018-06-24T03:35:27.716Z,6.77
2018-06-24T03:37:54.655Z,6.23
2018-06-24T03:40:21.609Z,6.20
2018-06-24T03:42:48.519Z,5.60
2018-06-24T03:45:15.441Z,5.57
2018-06-24T03:47:42.352Z,5.70
2018-06-24T03:50:09.317Z,5.07
2018-06-24T03:52:36.236Z,5.23
2018-06-24T03:55:03.561Z,5.30
2018-06-24T03:57:30.549Z,5.50
2018-06-24T03:59:57.546Z,5.50
2018-06-24T04:02:24.468Z,5.63
2018-06-24T04:04:51.469Z,5.03
2018-06-24T04:07:18.388Z,5.50
2018-06-24T04:09:45.316Z,5.50
2018-06-24T04:12:12.302Z,5.83
2018-06-24T04:14:39.254Z,5.23
2018-06-24T04:17:06.164Z,5.57
2018-06-24T04:19:33.101Z,5.87
2018-06-24T04:22:00.023Z,5.00
2018-06-24T04:24:26.951Z,5.73
2018-06-24T04:26:53.875Z,5.40
2018-06-24T04:29:20.822Z,5.60
2018-06-24T04:31:47.753Z,6.37
2018-06-24T04:34:14.692Z,5.27
2018-06-24T04:36:41.613Z,5.40
2018-06-24T04:39:09.660Z,5.80
2018-06-24T04:41:36.589Z,5.23
2018-06-24T04:44:03.564Z,5.10
2018-06-24T04:46:30.477Z,5.30
2018-06-24T04:48:57.426Z,5.13
2018-06-24T04:51:24.367Z,4.90
2018-06-24T04:53:51.277Z,5.20
2018-06-24T04:56:18.198Z,4.67
2018-06-24T04:58:45.117Z,5.60
2018-06-24T05:01:12.045Z,5.17
2018-06-24T05:03:38.967Z,4.83
2018-06-24T05:06:05.922Z,5.70
2018-06-24T05:08:32.865Z,5.10
2018-06-24T05:10:59.781Z,4.93
2018-06-24T05:13:26.707Z,4.47
2018-06-24T05:15:53.811Z,4.53
2018-06-24T05:18:20.758Z,4.80
2018-06-24T05:20:47.697Z,4.50
2018-06-24T05:23:14.610Z,4.73
2018-06-24T05:25:41.554Z,4.90
2018-06-24T05:28:08.480Z,4.60
2018-06-24T05:30:35.421Z,4.87
2018-06-24T05:33:02.349Z,4.53
2018-06-24T05:35:29.289Z,3.80
2018-06-24T05:37:56.271Z,4.57
2018-06-24T05:40:23.199Z,4.27
2018-06-24T05:42:50.141Z,4.27
2018-06-24T05:45:17.113Z,3.77
2018-06-24T05:47:44.037Z,4.10
2018-06-24T05:50:10.989Z,3.77
2018-06-24T05:52:37.912Z,3.70
2018-06-24T05:55:04.887Z,3.60
2018-06-24T05:57:31.804Z,3.00
2018-06-24T05:59:58.747Z,3.17
2018-06-24T06:02:25.665Z,3.23
2018-06-24T06:04:52.593Z,3.10
2018-06-24T06:07:19.525Z,3.17
2018-06-24T06:09:46.470Z,3.00
2018-06-24T06:12:13.405Z,3.33
2018-06-24T06:14:40.326Z,2.80
2018-06-24T06:17:07.254Z,2.83
2018-06-24T06:19:34.240Z,2.77
2018-06-24T06:22:01.177Z,2.77
2018-06-24T06:24:28.113Z,2.60
2018-06-24T06:26:55.069Z,2.70
2018-06-24T06:29:21.983Z,3.10
2018-06-24T06:31:48.917Z,3.00
2018-06-24T06:34:15.856Z,2.70
2018-06-24T06:36:42.841Z,2.67
2018-06-24T06:39:10.169Z,2.27
2018-06-24T06:41:37.177Z,2.73
2018-06-24T06:44:04.449Z,2.40
2018-06-24T06:46:31.390Z,2.10
2018-06-24T06:48:58.301Z,2.30
2018-06-24T06:51:25.241Z,2.13
2018-06-24T06:53:52.158Z,2.63
2018-06-24T06:56:19.081Z,2.20
2018-06-24T06:58:46.013Z,2.63
2018-06-24T07:01:12.989Z,2.50
2018-06-24T07:03:40.030Z,2.40
2018-06-24T07:06:06.953Z,2.27
2018-06-24T07:08:33.883Z,2.17
2018-06-24T07:11:00.841Z,2.37
2018-06-24T07:13:27.753Z,2.23
2018-06-24T07:15:54.682Z,2.17
2018-06-24T07:18:21.646Z,2.23
2018-06-24T07:20:48.592Z,2.30
2018-06-24T07:23:15.509Z,2.30
2018-06-24T07:25:42.489Z,1.93
2018-06-24T07:28:09.421Z,2.00
2018-06-24T07:30:36.569Z,2.40
2018-06-24T07:33:05.675Z,1.60
2018-06-24T07:35:33.732Z,1.80
2018-06-24T07:38:01.978Z,1.87
2018-06-24T07:40:28.918Z,1.80
2018-06-24T07:42:55.859Z,1.50
2018-06-24T07:45:22.799Z,1.93
2018-06-24T07:47:49.717Z,1.67
2018-06-24T07:50:16.696Z,1.40
2018-06-24T07:52:43.601Z,1.50
2018-06-24T07:55:10.545Z,1.50
2018-06-24T07:57:37.473Z,1.50
2018-06-24T08:00:04.800Z,1.53
2018-06-24T08:02:31.753Z,1.63
2018-06-24T08:04:58.677Z,1.80
2018-06-24T08:07:25.612Z,1.60
2018-06-24T08:09:52.550Z,1.50
2018-06-24T08:12:19.527Z,1.70
2018-06-24T08:14:46.437Z,1.50
2018-06-24T08:17:13.357Z,1.97
2018-06-24T08:19:40.276Z,1.70
2018-06-24T08:22:07.219Z,1.83
2018-06-24T08:24:34.315Z,1.70
2018-06-24T08:27:04.273Z,2.03
2018-06-24T08:29:31.189Z,1.70
2018-06-24T08:31:58.105Z,1.80
2018-06-24T08:34:25.036Z,1.70
2018-06-24T08:36:51.965Z,1.90
2018-06-24T08:39:18.864Z,1.63
2018-06-24T08:41:45.810Z,1.97
2018-06-24T08:44:12.705Z,2.00
2018-06-24T08:46:39.620Z,1.87
2018-06-24T08:49:07.152Z,1.90
2018-06-24T08:51:34.086Z,2.20
2018-06-24T08:54:01.008Z,2.20
2018-06-24T08:56:27.918Z,2.03
2018-06-24T08:58:55.071Z,2.00
2018-06-24T09:01:22.024Z,1.90
2018-06-24T09:03:48.950Z,2.23
2018-06-24T09:06:15.868Z,1.77
2018-06-24T09:08:42.829Z,2.20
2018-06-24T09:11:09.782Z,2.10
2018-06-24T09:13:36.692Z,2.03
2018-06-24T09:16:03.672Z,2.20
2018-06-24T09:18:30.590Z,1.87
2018-06-24T09:20:57.802Z,2.03
2018-06-24T09:23:24.937Z,1.80
2018-06-24T09:25:52.004Z,1.90
2018-06-24T09:28:18.924Z,1.73
2018-06-24T09:30:46.807Z,1.80
2018-06-24T09:33:13.697Z,1.70
2018-06-24T09:35:40.624Z,1.53
2018-06-24T09:38:07.596Z,1.60
2018-06-24T09:40:34.537Z,1.57
2018-06-24T09:43:01.466Z,1.80
2018-06-24T09:45:28.361Z,1.60
2018-06-24T09:47:55.313Z,1.60
2018-06-24T09:50:22.366Z,1.37
2018-06-24T09:52:49.370Z,1.40
2018-06-24T09:55:16.285Z,1.70
2018-06-24T09:57:43.471Z,1.90
2018-06-24T10:00:16.301Z,1.30
2018-06-24T10:02:43.260Z,1.50
2018-06-24T10:05:10.150Z,1.57
2018-06-24T10:07:37.094Z,1.70
2018-06-24T10:10:05.631Z,1.50
2018-06-24T10:12:33.893Z,1.77
2018-06-24T10:15:02.706Z,1.40
2018-06-24T10:17:31.305Z,1.30
2018-06-24T10:19:59.879Z,1.70
2018-06-24T10:22:27.742Z,1.50
2018-06-24T10:24:55.338Z,1.53
2018-06-24T10:27:22.300Z,1.63
2018-06-24T10:29:49.260Z,1.40
2018-06-24T10:32:16.194Z,1.60
2018-06-24T10:34:43.128Z,1.63
2018-06-24T10:37:11.651Z,1.53
2018-06-24T10:39:38.592Z,1.13
2018-06-24T10:42:05.508Z,1.40
2018-06-24T10:44:32.578Z,1.60
2018-06-24T10:46:59.658Z,1.40
2018-06-24T10:49:26.630Z,1.37
2018-06-24T10:51:53.613Z,1.60
2018-06-24T10:54:21.956Z,1.60
2018-06-24T10:56:50.331Z,1.50
2018-06-24T10:59:23.769Z,1.63
2018-06-24T11:01:51.776Z,1.60
2018-06-24T11:04:23.136Z,1.63
2018-06-24T11:06:54.290Z,1.50
2018-06-24T11:09:25.355Z,2.10
2018-06-24T11:11:52.282Z,1.70
2018-06-24T11:14:24.101Z,1.47
2018-06-24T11:16:52.364Z,1.57
2018-06-24T11:19:19.419Z,1.30
2018-06-24T11:21:48.873Z,1.30
2018-06-24T11:24:17.504Z,1.77
2018-06-24T11:26:45.993Z,1.77
2018-06-24T11:29:13.012Z,1.80
2018-06-24T11:31:42.129Z,1.60
2018-06-24T11:34:10.489Z,1.60
2018-06-24T11:36:37.826Z,1.70
2018-06-24T11:39:07.490Z,1.87
2018-06-24T11:41:34.455Z,1.70
2018-06-24T11:44:01.892Z,1.83
2018-06-24T11:46:29.550Z,1.77
2018-06-24T11:48:57.046Z,1.50
2018-06-24T11:51:24.452Z,1.80
2018-06-24T11:53:51.398Z,1.57
2018-06-24T11:56:21.786Z,1.83
2018-06-24T11:58:52.578Z,1.60
2018-06-24T12:01:21.527Z,1.57
2018-06-24T12:03:49.314Z,1.70
2018-06-24T12:06:18.247Z,1.60
2018-06-24T12:08:47.865Z,1.83
2018-06-24T12:11:16.620Z,1.60
2018-06-24T12:13:44.301Z,1.80
2018-06-24T12:16:11.671Z,1.50
2018-06-24T12:18:39.877Z,2.10
2018-06-24T12:21:08.185Z,2.70
2018-06-24T12:23:35.595Z,1.93
2018-06-24T12:26:02.850Z,1.97
2018-06-24T12:28:30.400Z,1.90
2018-06-24T12:30:57.537Z,1.90
2018-06-24T12:33:26.771Z,1.50
2018-06-24T12:35:55.794Z,1.60
2018-06-24T12:38:22.745Z,1.70
2018-06-24T12:40:51.918Z,1.77
2018-06-24T12:43:19.871Z,1.90
2018-06-24T12:45:47.473Z,1.50
2018-06-24T12:48:15.884Z,1.80
2018-06-24T12:50:42.876Z,1.80
2018-06-24T12:53:12.597Z,1.90
2018-06-24T12:55:42.275Z,1.63
2018-06-24T12:58:09.910Z,2.00
2018-06-24T13:00:37.412Z,1.60
2018-06-24T13:03:04.400Z,1.40
2018-06-24T13:05:31.643Z,1.80
2018-06-24T13:07:58.569Z,1.70
2018-06-24T13:10:25.495Z,1.73
2018-06-24T13:12:52.430Z,2.00
2018-06-24T13:15:19.357Z,2.27
2018-06-24T13:17:46.265Z,2.17
2018-06-24T13:20:13.181Z,2.60
2018-06-24T13:22:40.154Z,2.40
2018-06-24T13:25:07.117Z,2.37
2018-06-24T13:27:34.059Z,3.37
2018-06-24T13:30:01.052Z,3.20
2018-06-24T13:32:28.071Z,2.70
2018-06-24T13:34:55.001Z,2.10
2018-06-24T13:37:21.977Z,2.57
2018-06-24T13:39:48.918Z,2.63
2018-06-24T13:42:15.986Z,2.63
2018-06-24T13:44:42.873Z,2.67
2018-06-24T13:47:09.874Z,2.47
2018-06-24T13:49:36.809Z,2.37
2018-06-24T13:52:03.997Z,2.80
2018-06-24T13:54:30.935Z,2.50
2018-06-24T13:56:58.164Z,2.63
2018-06-24T13:59:25.858Z,3.13
2018-06-24T14:01:53.338Z,2.83
2018-06-24T14:04:26.625Z,2.93
2018-06-24T14:06:56.698Z,2.60
2018-06-24T14:09:41.325Z,3.33
2018-06-24T14:12:08.382Z,2.90
2018-06-24T14:14:42.369Z,2.73
2018-06-24T14:17:13.729Z,2.57
2018-06-24T14:19:41.078Z,2.80
2018-06-24T14:22:08.473Z,3.10
2018-06-24T14:24:36.040Z,3.83
2018-06-24T14:27:03.442Z,3.00
2018-06-24T14:29:30.956Z,3.27
2018-06-24T14:31:58.331Z,3.00
2018-06-24T14:34:25.695Z,3.00
2018-06-24T14:36:53.085Z,3.20
2018-06-24T14:39:23.276Z,3.10
2018-06-24T14:41:50.653Z,3.87
2018-06-24T14:44:17.964Z,3.37
2018-06-24T14:46:45.320Z,3.03
2018-06-24T14:49:12.695Z,2.80
2018-06-24T14:51:39.645Z,3.20
2018-06-24T14:54:06.577Z,3.10
2018-06-24T14:56:33.527Z,3.20
2018-06-24T14:59:00.463Z,3.33
2018-06-24T15:01:27.472Z,3.10
2018-06-24T15:03:54.324Z,3.40
2018-06-24T15:06:21.261Z,3.57
2018-06-24T15:08:48.210Z,3.60
2018-06-24T15:11:15.332Z,3.87
2018-06-24T15:13:42.253Z,3.50
2018-06-24T15:16:09.201Z,3.40
2018-06-24T15:18:36.116Z,3.20
2018-06-24T15:21:03.065Z,3.30
2018-06-24T15:23:29.974Z,3.60
2018-06-24T15:25:56.917Z,3.40
2018-06-24T15:28:23.836Z,3.57
2018-06-24T15:30:50.768Z,4.17
2018-06-24T15:33:17.683Z,3.57
2018-06-24T15:35:44.602Z,3.30
2018-06-24T15:38:28.819Z,3.23
2018-06-24T15:40:57.013Z,3.73
2018-06-24T15:43:23.957Z,3.57
2018-06-24T15:45:51.448Z,3.33
2018-06-24T15:48:18.342Z,3.50
2018-06-24T15:50:45.257Z,4.03
2018-06-24T15:53:12.168Z,3.50
2018-06-24T15:55:39.595Z,3.77
2018-06-24T15:58:06.509Z,4.03
2018-06-24T16:00:33.834Z,3.40
2018-06-24T16:03:01.001Z,3.40
2018-06-24T16:05:27.977Z,3.47
2018-06-24T16:07:54.913Z,3.00
2018-06-24T16:10:21.854Z,3.40
2018-06-24T16:12:48.774Z,3.20
2018-06-24T16:15:15.708Z,2.97
2018-06-24T16:17:42.699Z,3.20
2018-06-24T16:20:09.639Z,3.37
2018-06-24T16:22:36.553Z,3.70
2018-06-24T16:25:03.766Z,3.77
2018-06-24T16:27:30.719Z,3.70
2018-06-24T16:29:57.821Z,4.03
2018-06-24T16:32:24.749Z,3.60
2018-06-24T16:34:51.716Z,3.37
2018-06-24T16:37:18.811Z,3.57
2018-06-24T16:39:45.736Z,3.40
2018-06-24T16:42:12.721Z,3.80
2018-06-24T16:44:40.152Z,3.63
2018-06-24T16:47:07.102Z,3.40
2018-06-24T16:49:35.362Z,3.90
2018-06-24T16:52:02.331Z,3.70
2018-06-24T16:54:29.257Z,3.83
2018-06-24T16:56:56.191Z,3.63
2018-06-24T16:59:23.105Z,3.70
2018-06-24T17:01:52.417Z,3.80
2018-06-24T17:04:20.505Z,3.33
2018-06-24T17:06:49.175Z,3.50
2018-06-24T17:09:16.418Z,3.50
2018-06-24T17:11:43.459Z,3.77
2018-06-24T17:14:10.389Z,3.43
2018-06-24T17:16:37.322Z,3.23
2018-06-24T17:19:04.616Z,3.57
2018-06-24T17:21:31.655Z,3.40
2018-06-24T17:23:58.605Z,3.30
2018-06-24T17:26:25.516Z,3.50
2018-06-24T17:28:52.461Z,3.50
2018-06-24T17:31:19.374Z,3.67
2018-06-24T17:33:46.299Z,3.50
2018-06-24T17:36:13.205Z,3.47
2018-06-24T17:38:40.135Z,3.30
2018-06-24T17:41:07.086Z,3.57
2018-06-24T17:43:33.997Z,3.83
2018-06-24T17:46:01.067Z,3.27
2018-06-24T17:48:27.964Z,3.60
2018-06-24T17:50:54.877Z,3.73
2018-06-24T17:53:21.838Z,3.53
2018-06-24T17:55:48.728Z,3.30
2018-06-24T17:58:15.789Z,3.63
2018-06-24T18:00:42.728Z,3.40
2018-06-24T18:03:09.644Z,2.67
2018-06-24T18:05:36.593Z,3.73
2018-06-24T18:08:03.816Z,3.63
2018-06-24T18:10:30.730Z,3.50
2018-06-24T18:12:57.651Z,3.40
2018-06-24T18:15:24.575Z,3.30
2018-06-24T18:17:51.490Z,3.20
2018-06-24T18:20:18.433Z,3.30
2018-06-24T18:22:45.337Z,4.03
2018-06-24T18:25:12.274Z,3.70
2018-06-24T18:27:39.184Z,3.77
2018-06-24T18:30:06.130Z,3.77
2018-06-24T18:32:33.049Z,3.73
2018-06-24T18:34:59.994Z,4.10
2018-06-24T18:37:26.881Z,3.97
2018-06-24T18:39:53.816Z,3.93
2018-06-24T18:42:20.748Z,3.53
2018-06-24T18:44:47.698Z,3.90
2018-06-24T18:47:15.165Z,3.53
2018-06-24T18:49:42.154Z,3.87
2018-06-24T18:52:09.090Z,3.80
2018-06-24T18:54:36.021Z,3.70
2018-06-24T18:57:03.106Z,3.33
2018-06-24T18:59:30.175Z,3.93
2018-06-24T19:01:57.349Z,3.83
2018-06-24T19:04:24.415Z,3.57
2018-06-24T19:06:51.505Z,3.80
2018-06-24T19:09:18.565Z,3.73
2018-06-24T19:11:45.613Z,3.60
2018-06-24T19:14:12.728Z,3.67
2018-06-24T19:16:40.467Z,3.63
2018-06-24T19:19:07.638Z,3.63
2018-06-24T19:21:34.699Z,3.33
2018-06-24T19:24:01.649Z,4.00
2018-06-24T19:26:28.618Z,4.03
2018-06-24T19:28:55.560Z,3.67
2018-06-24T19:31:22.454Z,3.07
2018-06-24T19:33:49.373Z,3.57
2018-06-24T19:36:16.317Z,3.07
2018-06-24T19:38:43.240Z,3.80
2018-06-24T19:41:10.593Z,3.63
2018-06-24T19:43:37.528Z,3.43
2018-06-24T19:46:04.464Z,3.30
2018-06-24T19:48:31.356Z,3.80
2018-06-24T19:50:58.300Z,3.27
2018-06-24T19:53:25.233Z,3.57
2018-06-24T19:55:52.329Z,3.23
2018-06-24T19:58:19.234Z,2.50
2018-06-24T20:00:46.210Z,2.93
2018-06-24T20:03:13.159Z,3.07
2018-06-24T20:05:40.085Z,3.50
2018-06-24T20:08:06.997Z,3.10
2018-06-24T20:10:33.921Z,2.70
2018-06-24T20:13:00.858Z,3.00
2018-06-24T20:15:27.789Z,2.90
2018-06-24T20:17:54.713Z,3.27
2018-06-24T20:20:21.633Z,2.97
2018-06-24T20:22:48.553Z,3.30
2018-06-24T20:25:15.480Z,3.33
2018-06-24T20:27:43.253Z,3.37
2018-06-24T20:30:10.204Z,2.80
2018-06-24T20:32:37.112Z,3.00
2018-06-24T20:35:04.106Z,3.50
2018-06-24T20:37:31.849Z,3.60
2018-06-24T20:39:58.773Z,2.90
2018-06-24T20:42:25.709Z,3.20
2018-06-24T20:44:52.629Z,2.67
2018-06-24T20:47:19.570Z,3.33
2018-06-24T20:49:46.520Z,3.20
2018-06-24T20:52:13.425Z,3.20
2018-06-24T20:54:40.341Z,3.07
2018-06-24T20:57:07.246Z,3.30
2018-06-24T20:59:34.191Z,3.63
2018-06-24T21:02:01.114Z,3.43
2018-06-24T21:04:28.033Z,3.27
2018-06-24T21:06:54.941Z,2.97
2018-06-24T21:09:21.872Z,3.50
2018-06-24T21:11:48.804Z,3.40
2018-06-24T21:14:15.721Z,4.00
2018-06-24T21:16:42.681Z,3.37
2018-06-24T21:19:09.650Z,3.43
2018-06-24T21:21:36.565Z,3.03
2018-06-24T21:24:03.500Z,3.37
2018-06-24T21:26:30.440Z,3.60
2018-06-24T21:28:57.389Z,3.50
2018-06-24T21:31:24.324Z,3.43
2018-06-24T21:33:51.259Z,3.43
2018-06-24T21:36:18.184Z,3.27
2018-06-24T21:38:45.141Z,4.13
2018-06-24T21:41:12.080Z,3.70
2018-06-24T21:43:39.014Z,3.90
2018-06-24T21:46:06.001Z,3.90
2018-06-24T21:48:32.949Z,3.83
2018-06-24T21:50:59.874Z,3.87
2018-06-24T21:53:26.796Z,3.53
2018-06-24T21:55:53.764Z,3.70
2018-06-24T21:58:20.661Z,3.83
2018-06-24T22:00:47.590Z,3.47
2018-06-24T22:03:14.513Z,4.40
2018-06-24T22:05:41.442Z,4.47
2018-06-24T22:08:08.346Z,3.80
2018-06-24T22:10:35.282Z,4.57
2018-06-24T22:13:02.189Z,4.00
2018-06-24T22:15:29.142Z,3.70
2018-06-24T22:17:56.135Z,4.00
2018-06-24T22:20:23.057Z,4.20
2018-06-24T22:22:50.331Z,4.93
2018-06-24T22:25:17.276Z,3.57
2018-06-24T22:27:44.194Z,3.53
2018-06-24T22:30:11.130Z,5.00
2018-06-24T22:32:38.101Z,4.53
2018-06-24T22:35:05.040Z,4.17
2018-06-24T22:37:31.994Z,4.30
2018-06-24T22:39:58.927Z,3.60
2018-06-24T22:42:25.841Z,4.00
2018-06-24T22:44:52.756Z,4.43
2018-06-24T22:47:19.677Z,4.43
2018-06-24T22:49:46.593Z,4.57
2018-06-24T22:52:13.529Z,4.70
2018-06-24T22:54:40.449Z,5.00
2018-06-24T22:57:07.385Z,4.77
2018-06-24T22:59:45.811Z,5.07
2018-06-24T23:02:12.731Z,4.90
2018-06-24T23:04:39.675Z,4.83
2018-06-24T23:07:06.609Z,5.07
2018-06-24T23:09:33.533Z,4.93
2018-06-24T23:12:00.473Z,5.00
2018-06-24T23:14:27.394Z,5.20
2018-06-24T23:16:54.350Z,4.90
2018-06-24T23:19:21.260Z,5.10
2018-06-24T23:21:48.176Z,5.07
2018-06-24T23:24:15.108Z,5.00
2018-06-24T23:26:42.029Z,4.53
2018-06-24T23:29:08.958Z,5.20
2018-06-24T23:31:35.880Z,4.47
2018-06-24T23:34:02.849Z,5.13
2018-06-24T23:36:29.760Z,5.47
2018-06-24T23:38:56.681Z,5.43
2018-06-24T23:41:23.598Z,5.23
2018-06-24T23:43:50.508Z,5.23
2018-06-24T23:46:17.422Z,6.20
2018-06-24T23:48:44.433Z,5.30
2018-06-24T23:51:11.353Z,5.87
2018-06-24T23:53:38.281Z,4.93
2018-06-24T23:56:05.205Z,5.00
2018-06-24T23:58:32.121Z,5.60
